createdAt,value
2019-05-15T00:00:21.165Z,35.60
2019-05-15T00:02:49.644Z,31.77
2019-05-15T00:05:18.844Z,32.50
2019-05-15T00:07:48.442Z,33.77
2019-05-15T00:10:18.114Z,36.43
2019-05-15T00:12:48.617Z,39.73
2019-05-15T00:15:18.246Z,36.80
2019-05-15T00:17:48.494Z,37.37
2019-05-15T00:20:20.056Z,39.67
2019-05-15T00:22:48.442Z,42.93
2019-05-15T00:25:18.858Z,40.30
2019-05-15T00:27:49.104Z,41.40
2019-05-15T00:30:18.490Z,45.10
2019-05-15T00:32:48.718Z,44.33
2019-05-15T00:35:18.441Z,45.83
2019-05-15T00:37:49.244Z,44.83
2019-05-15T00:40:18.528Z,48.30
2019-05-15T00:42:48.799Z,47.20
2019-05-15T00:45:18.648Z,48.10
2019-05-15T00:47:48.656Z,47.53
2019-05-15T00:50:18.234Z,46.33
2019-05-15T00:52:48.492Z,43.77
2019-05-15T00:55:19.050Z,43.83
2019-05-15T00:57:48.544Z,46.87
2019-05-15T01:00:41.315Z,45.83
2019-05-15T01:03:10.110Z,45.50
2019-05-15T01:05:38.923Z,47.53
2019-05-15T01:08:08.187Z,48.57
2019-05-15T01:10:38.595Z,47.63
2019-05-15T01:13:08.344Z,50.93
2019-05-15T01:15:38.679Z,46.93
2019-05-15T01:18:09.325Z,49.87
2019-05-15T01:20:39.142Z,50.87
2019-05-15T01:23:08.910Z,53.77
2019-05-15T01:25:39.010Z,55.47
2019-05-15T01:28:09.479Z,52.57
2019-05-15T01:30:39.295Z,50.53
2019-05-15T01:33:08.475Z,45.50
2019-05-15T01:35:38.422Z,52.00
2019-05-15T01:38:08.119Z,61.50
2019-05-15T01:40:38.464Z,56.03
2019-05-15T01:43:09.235Z,64.80
2019-05-15T01:45:39.433Z,64.63
2019-05-15T01:48:08.353Z,69.27
2019-05-15T01:50:38.887Z,66.57
2019-05-15T01:53:08.272Z,65.03
2019-05-15T01:55:39.291Z,73.37
2019-05-15T01:58:33.348Z,70.63
2019-05-15T02:01:01.962Z,73.60
2019-05-15T02:03:31.919Z,80.43
2019-05-15T02:06:00.595Z,90.03
2019-05-15T02:08:29.113Z,87.43
2019-05-15T02:10:58.819Z,79.17
2019-05-15T02:13:28.252Z,92.43
2019-05-15T02:15:58.915Z,106.67
2019-05-15T02:18:28.531Z,103.90
2019-05-15T02:20:58.715Z,115.73
2019-05-15T02:23:28.038Z,110.53
2019-05-15T02:25:58.749Z,112.03
2019-05-15T02:28:28.930Z,102.03
2019-05-15T02:30:58.753Z,117.03
2019-05-15T02:33:30.078Z,111.63
2019-05-15T02:35:59.471Z,117.63
2019-05-15T02:38:29.686Z,123.90
2019-05-15T02:40:59.317Z,131.47
2019-05-15T02:43:29.799Z,137.73
2019-05-15T02:46:00.390Z,130.63
2019-05-15T02:48:29.154Z,145.43
2019-05-15T02:50:58.942Z,141.73
2019-05-15T02:53:29.947Z,127.13
2019-05-15T02:56:00.190Z,149.50
2019-05-15T02:58:29.408Z,138.27
2019-05-15T03:00:59.364Z,128.67
2019-05-15T03:03:29.515Z,124.73
2019-05-15T03:06:00.235Z,126.40
2019-05-15T03:08:29.851Z,117.33
2019-05-15T03:10:59.423Z,122.67
2019-05-15T03:13:29.962Z,109.37
2019-05-15T03:15:59.788Z,116.07
2019-05-15T03:18:29.137Z,108.97
2019-05-15T03:21:00.385Z,98.47
2019-05-15T03:23:29.598Z,93.73
2019-05-15T03:26:02.935Z,83.50
2019-05-15T03:28:29.570Z,86.90
2019-05-15T03:31:32.593Z,79.90
2019-05-15T03:33:35.840Z,94.27
2019-05-15T03:36:02.562Z,73.37
2019-05-15T03:38:30.284Z,74.67
2019-05-15T03:40:59.779Z,76.50
2019-05-15T03:43:29.180Z,71.50
2019-05-15T03:46:01.243Z,81.87
2019-05-15T03:48:29.002Z,79.77
2019-05-15T03:50:59.760Z,65.60
2019-05-15T03:53:29.941Z,71.87
2019-05-15T03:55:59.165Z,72.50
2019-05-15T03:58:28.756Z,70.27
2019-05-15T04:01:00.282Z,70.30
2019-05-15T04:03:29.912Z,67.80
2019-05-15T04:06:00.453Z,69.17
2019-05-15T04:08:29.897Z,61.53
2019-05-15T04:10:59.702Z,64.97
2019-05-15T04:13:30.100Z,62.60
2019-05-15T04:15:59.565Z,60.10
2019-05-15T04:18:29.113Z,59.23
2019-05-15T04:21:00.120Z,55.10
2019-05-15T04:23:30.128Z,52.63
2019-05-15T04:25:59.076Z,58.47
2019-05-15T04:28:30.891Z,58.17
2019-05-15T04:30:59.843Z,58.63
2019-05-15T04:33:29.519Z,58.30
2019-05-15T04:35:58.926Z,56.33
2019-05-15T04:38:29.359Z,57.43
2019-05-15T04:40:59.119Z,58.20
2019-05-15T04:43:29.420Z,54.57
2019-05-15T04:46:02.804Z,54.30
2019-05-15T04:48:29.231Z,59.13
2019-05-15T04:50:58.827Z,53.67
2019-05-15T04:53:29.699Z,55.67
2019-05-15T04:55:59.764Z,54.10
2019-05-15T04:58:29.680Z,55.57
2019-05-15T05:00:59.934Z,48.87
2019-05-15T05:03:29.534Z,54.00
2019-05-15T05:05:59.200Z,55.07
2019-05-15T05:08:29.175Z,52.47
2019-05-15T05:10:59.217Z,50.40
2019-05-15T05:13:28.871Z,54.90
2019-05-15T05:15:58.656Z,52.40
2019-05-15T05:18:29.731Z,56.57
2019-05-15T05:20:58.004Z,54.50
2019-05-15T05:23:28.334Z,55.93
2019-05-15T05:25:58.108Z,51.40
2019-05-15T05:28:28.930Z,52.63
2019-05-15T05:30:58.813Z,55.77
2019-05-15T05:33:28.711Z,57.17
2019-05-15T05:35:58.353Z,54.87
2019-05-15T05:38:28.198Z,54.97
2019-05-15T05:40:58.738Z,55.27
2019-05-15T05:43:29.807Z,51.87
2019-05-15T05:45:58.293Z,55.17
2019-05-15T05:48:29.071Z,58.80
2019-05-15T05:50:58.417Z,59.23
2019-05-15T05:53:28.668Z,53.67
2019-05-15T05:55:58.016Z,54.47
2019-05-15T05:58:29.467Z,47.90
2019-05-15T06:00:58.562Z,50.83
2019-05-15T06:03:28.180Z,50.27
2019-05-15T06:05:59.058Z,51.20
2019-05-15T06:08:28.231Z,48.63
2019-05-15T06:10:58.538Z,46.00
2019-05-15T06:13:29.108Z,48.03
2019-05-15T06:15:59.067Z,50.43
2019-05-15T06:18:28.263Z,51.00
2019-05-15T06:20:58.616Z,51.23
2019-05-15T06:23:33.701Z,48.13
2019-05-15T06:25:59.211Z,49.90
2019-05-15T06:28:28.933Z,48.43
2019-05-15T06:31:00.780Z,60.20
2019-05-15T06:33:28.009Z,51.97
2019-05-15T06:35:59.066Z,53.90
2019-05-15T06:38:31.023Z,51.27
2019-05-15T06:40:58.253Z,54.80
2019-05-15T06:43:28.031Z,52.33
2019-05-15T06:45:58.484Z,52.13
2019-05-15T06:48:28.911Z,46.00
2019-05-15T06:50:58.050Z,45.00
2019-05-15T06:53:28.848Z,53.00
2019-05-15T06:55:58.480Z,46.97
2019-05-15T06:58:29.009Z,46.20
2019-05-15T07:00:59.258Z,52.83
2019-05-15T07:03:29.376Z,44.50
2019-05-15T07:05:59.758Z,47.00
2019-05-15T07:08:28.890Z,44.07
2019-05-15T07:10:57.946Z,45.73
2019-05-15T07:13:28.858Z,46.33
2019-05-15T07:15:58.493Z,38.63
2019-05-15T07:18:28.342Z,41.33
2019-05-15T07:20:58.064Z,41.03
2019-05-15T07:23:30.361Z,42.70
2019-05-15T07:25:58.716Z,44.57
2019-05-15T07:28:28.847Z,45.37
2019-05-15T07:30:58.373Z,43.87
2019-05-15T07:33:38.712Z,43.67
2019-05-15T07:35:59.150Z,39.77
2019-05-15T07:38:28.279Z,42.17
2019-05-15T07:41:03.391Z,48.10
2019-05-15T07:43:28.153Z,38.73
2019-05-15T07:45:59.026Z,39.43
2019-05-15T07:48:29.062Z,44.97
2019-05-15T07:50:59.497Z,42.13
2019-05-15T07:53:28.854Z,44.47
2019-05-15T07:56:01.138Z,42.83
2019-05-15T07:58:28.301Z,41.33
2019-05-15T08:00:59.062Z,39.63
2019-05-15T08:03:29.287Z,42.73
2019-05-15T08:06:02.088Z,38.77
2019-05-15T08:08:29.082Z,41.43
2019-05-15T08:10:58.387Z,40.50
2019-05-15T08:13:28.958Z,36.10
2019-05-15T08:15:58.012Z,37.83
2019-05-15T08:18:28.642Z,37.63
2019-05-15T08:20:58.554Z,41.83
2019-05-15T08:23:28.407Z,37.17
2019-05-15T08:25:57.920Z,42.50
2019-05-15T08:28:28.668Z,48.53
2019-05-15T08:30:58.373Z,48.13
2019-05-15T08:33:28.029Z,40.60
2019-05-15T08:35:58.783Z,41.13
2019-05-15T08:38:28.775Z,39.97
2019-05-15T08:40:59.283Z,42.73
2019-05-15T08:43:29.101Z,43.77
2019-05-15T08:45:58.775Z,42.27
2019-05-15T08:48:27.813Z,43.83
2019-05-15T08:50:57.944Z,48.10
2019-05-15T08:53:28.551Z,45.70
2019-05-15T08:55:58.774Z,48.87
2019-05-15T08:58:29.141Z,50.17
2019-05-15T09:00:58.642Z,55.03
2019-05-15T09:03:28.654Z,49.53
2019-05-15T09:05:59.022Z,52.50
2019-05-15T09:08:29.376Z,51.73
2019-05-15T09:10:58.742Z,52.10
2019-05-15T09:13:29.275Z,50.27
2019-05-15T09:15:58.890Z,50.17
2019-05-15T09:18:28.380Z,46.17
2019-05-15T09:20:59.371Z,43.80
2019-05-15T09:23:28.939Z,48.57
2019-05-15T09:25:58.058Z,46.57
2019-05-15T09:28:29.287Z,48.13
2019-05-15T09:30:59.042Z,48.27
2019-05-15T09:33:28.613Z,39.40
2019-05-15T09:35:58.403Z,51.40
2019-05-15T09:38:28.915Z,50.40
2019-05-15T09:40:58.511Z,47.90
2019-05-15T09:43:28.495Z,42.73
2019-05-15T09:45:58.353Z,47.17
2019-05-15T09:48:28.646Z,41.00
2019-05-15T09:50:58.781Z,46.67
2019-05-15T09:53:28.562Z,46.70
2019-05-15T09:55:59.755Z,49.13
2019-05-15T09:58:30.051Z,46.20
2019-05-15T10:00:58.183Z,44.77
2019-05-15T10:03:28.175Z,48.73
2019-05-15T10:05:57.003Z,41.77
2019-05-15T10:08:25.595Z,45.17
2019-05-15T10:10:54.048Z,43.10
2019-05-15T10:13:22.538Z,42.50
2019-05-15T10:15:51.362Z,40.90
2019-05-15T10:18:19.991Z,40.50
2019-05-15T10:20:48.686Z,46.47
2019-05-15T10:23:19.514Z,42.47
2019-05-15T10:25:48.540Z,39.80
2019-05-15T10:28:18.737Z,43.23
2019-05-15T10:30:49.368Z,39.87
2019-05-15T10:33:19.655Z,42.30
2019-05-15T10:35:48.737Z,41.03
2019-05-15T10:38:19.248Z,40.80
2019-05-15T10:41:00.242Z,37.87
2019-05-15T10:43:20.723Z,41.50
2019-05-15T10:45:50.061Z,38.57
2019-05-15T10:48:19.270Z,36.57
2019-05-15T10:50:47.994Z,38.27
2019-05-15T10:53:18.842Z,33.87
2019-05-15T10:55:49.555Z,31.67
2019-05-15T10:58:21.759Z,35.20
2019-05-15T11:00:49.406Z,37.97
2019-05-15T11:03:19.974Z,33.47
2019-05-15T11:05:49.132Z,32.67
2019-05-15T11:08:18.835Z,35.10
2019-05-15T11:10:49.494Z,35.00
2019-05-15T11:13:18.953Z,49.13
2019-05-15T11:15:49.101Z,38.13
2019-05-15T11:18:18.241Z,36.37
2019-05-15T11:20:48.700Z,31.87
2019-05-15T11:23:19.886Z,35.07
2019-05-15T11:25:48.785Z,36.17
2019-05-15T11:28:17.590Z,35.67
2019-05-15T11:30:48.874Z,35.53
2019-05-15T11:33:18.842Z,33.00
2019-05-15T11:35:58.230Z,32.40
2019-05-15T11:38:19.434Z,30.53
2019-05-15T11:40:48.203Z,32.07
2019-05-15T11:43:59.021Z,32.43
2019-05-15T11:46:29.136Z,35.37
2019-05-15T11:52:49.526Z,36.43
2019-05-15T11:55:18.252Z,34.10
2019-05-15T11:57:50.920Z,33.87
2019-05-15T12:00:26.576Z,31.67
2019-05-15T12:02:48.394Z,31.00
2019-05-15T12:05:18.236Z,27.60
2019-05-15T12:07:47.796Z,26.57
2019-05-15T12:10:18.466Z,22.10
2019-05-15T12:12:49.729Z,25.70
2019-05-15T12:15:19.078Z,24.67
2019-05-15T12:17:48.616Z,25.63
2019-05-15T12:20:19.278Z,20.33
2019-05-15T12:22:48.712Z,20.47
2019-05-15T12:25:17.743Z,21.30
2019-05-15T12:27:49.067Z,21.13
2019-05-15T12:30:19.965Z,21.03
2019-05-15T12:32:49.340Z,21.63
2019-05-15T12:35:20.495Z,24.03
2019-05-15T12:37:48.739Z,21.63
2019-05-15T13:00:24.623Z,23.40
2019-05-15T13:02:53.105Z,20.53
2019-05-15T13:05:21.707Z,24.00
2019-05-15T13:07:50.336Z,23.43
2019-05-15T13:10:19.130Z,24.27
2019-05-15T13:12:57.269Z,22.33
2019-05-15T13:15:19.017Z,24.23
2019-05-15T13:17:52.955Z,22.17
2019-05-15T13:20:18.632Z,21.53
2019-05-15T13:25:18.677Z,26.70
2019-05-15T13:27:48.834Z,27.43
2019-05-15T13:30:18.482Z,30.47
2019-05-15T13:32:49.745Z,28.40
2019-05-15T13:35:18.403Z,18.10
2019-05-15T13:37:49.449Z,18.40
2019-05-15T13:40:18.910Z,13.73
2019-05-15T13:42:48.574Z,14.47
2019-05-15T13:45:18.389Z,15.90
2019-05-15T13:47:47.007Z,15.27
2019-05-15T13:50:15.706Z,16.50
2019-05-15T13:52:44.838Z,16.03
2019-05-15T13:55:13.557Z,15.47
2019-05-15T13:57:42.113Z,13.83
2019-05-15T14:00:11.485Z,12.13
2019-05-15T14:02:40.279Z,11.93
2019-05-15T14:05:09.854Z,10.17
2019-05-15T14:07:48.945Z,12.10
2019-05-15T14:10:10.153Z,10.83
2019-05-15T14:12:38.667Z,10.73
2019-05-15T14:15:09.161Z,10.50
2019-05-15T14:17:37.814Z,12.70
2019-05-15T14:20:09.139Z,9.47
2019-05-15T14:22:39.035Z,11.17
2019-05-15T14:25:08.837Z,11.57
2019-05-15T14:27:39.694Z,10.73
2019-05-15T14:30:09.540Z,10.57
2019-05-15T14:32:39.279Z,13.10
2019-05-15T14:35:09.315Z,9.57
2019-05-15T14:37:38.038Z,9.93
2019-05-15T14:40:08.894Z,7.77
2019-05-15T14:42:39.494Z,9.70
2019-05-15T14:45:09.815Z,5.93
2019-05-15T14:47:39.129Z,5.33
2019-05-15T14:50:10.163Z,6.33
2019-05-15T14:52:38.961Z,7.97
2019-05-15T14:55:09.861Z,7.90
2019-05-15T14:57:39.140Z,10.83
2019-05-15T15:00:10.091Z,12.13
2019-05-15T15:02:39.258Z,6.23
2019-05-15T15:05:09.009Z,6.90
2019-05-15T15:07:38.171Z,5.40
2019-05-15T15:10:08.157Z,6.43
2019-05-15T15:12:39.521Z,6.27
2019-05-15T15:15:10.019Z,6.60
2019-05-15T15:17:38.925Z,7.87
2019-05-15T15:20:08.529Z,3.70
2019-05-15T15:22:39.445Z,9.23
2019-05-15T15:25:09.518Z,8.00
2019-05-15T15:27:39.063Z,6.90
2019-05-15T15:30:09.156Z,7.63
2019-05-15T15:32:38.325Z,4.40
2019-05-15T15:35:08.543Z,8.20
2019-05-15T15:37:38.182Z,3.83
2019-05-15T15:40:08.269Z,7.27
2019-05-15T15:42:39.384Z,4.67
2019-05-15T15:45:10.459Z,5.53
2019-05-15T15:47:39.254Z,6.57
2019-05-15T15:50:09.556Z,5.37
2019-05-15T15:52:38.799Z,5.43
2019-05-15T15:55:09.296Z,5.57
2019-05-15T15:57:39.885Z,4.03
2019-05-15T16:00:09.781Z,6.27
2019-05-15T16:02:41.094Z,5.47
2019-05-15T16:05:09.427Z,8.13
2019-05-15T16:07:38.221Z,7.63
2019-05-15T16:10:08.417Z,5.83
2019-05-15T16:12:38.719Z,6.07
2019-05-15T16:15:09.046Z,5.67
2019-05-15T16:17:38.488Z,4.93
2019-05-15T16:20:09.641Z,4.47
2019-05-15T16:22:38.608Z,3.93
2019-05-15T16:25:09.766Z,8.73
2019-05-15T16:27:38.782Z,9.63
2019-05-15T16:30:08.487Z,6.63
2019-05-15T16:32:38.819Z,7.77
2019-05-15T16:35:09.973Z,5.23
2019-05-15T16:37:39.194Z,7.13
2019-05-15T16:40:08.702Z,5.63
2019-05-15T16:42:38.584Z,5.10
2019-05-15T16:45:09.303Z,6.97
2019-05-15T16:47:38.767Z,6.37
2019-05-15T16:50:08.930Z,4.13
2019-05-15T16:52:38.746Z,8.87
2019-05-15T16:55:09.758Z,10.73
2019-05-15T16:57:39.111Z,8.37
2019-05-15T17:00:10.231Z,8.70
2019-05-15T17:02:39.583Z,7.60
2019-05-15T17:05:09.025Z,9.23
2019-05-15T17:07:38.763Z,5.77
2019-05-15T17:10:08.755Z,5.60
2019-05-15T17:12:38.687Z,9.20
2019-05-15T17:15:08.614Z,5.60
2019-05-15T17:17:38.644Z,5.43
2019-05-15T17:20:09.709Z,6.93
2019-05-15T17:22:38.882Z,8.77
2019-05-15T17:25:09.341Z,5.90
2019-05-15T17:27:38.299Z,6.93
2019-05-15T17:30:09.298Z,8.83
2019-05-15T17:32:38.998Z,6.30
2019-05-15T17:35:10.060Z,10.47
2019-05-15T17:37:39.049Z,6.70
2019-05-15T17:40:08.270Z,7.60
2019-05-15T17:42:38.985Z,5.40
2019-05-15T17:45:09.359Z,6.63
2019-05-15T17:47:39.426Z,7.40
2019-05-15T17:50:10.022Z,6.70
2019-05-15T17:52:39.045Z,7.87
2019-05-15T17:55:07.871Z,9.57
2019-05-15T17:57:38.638Z,6.70
2019-05-15T18:00:11.614Z,7.77
2019-05-15T18:02:38.623Z,8.77
2019-05-15T18:05:07.845Z,8.70
2019-05-15T18:07:38.856Z,10.07
2019-05-15T18:10:08.406Z,10.57
2019-05-15T18:12:38.865Z,8.60
2019-05-15T18:15:08.976Z,13.73
2019-05-15T18:17:39.145Z,9.40
2019-05-15T18:20:10.402Z,13.53
2019-05-15T18:22:39.321Z,10.43
2019-05-15T18:25:09.108Z,17.80
2019-05-15T18:27:38.832Z,13.20
2019-05-15T18:30:09.194Z,11.33
2019-05-15T18:32:39.060Z,11.07
2019-05-15T18:35:08.757Z,9.30
2019-05-15T18:37:39.458Z,8.63
2019-05-15T18:40:10.032Z,12.23
2019-05-15T18:42:39.335Z,11.30
2019-05-15T18:45:08.927Z,11.33
2019-05-15T18:47:39.043Z,12.13
2019-05-15T18:50:13.167Z,16.37
2019-05-15T18:52:39.185Z,12.90
2019-05-15T18:55:08.398Z,12.17
2019-05-15T18:57:38.569Z,11.57
2019-05-15T19:00:09.184Z,11.73
2019-05-15T19:02:39.279Z,12.37
2019-05-15T19:05:08.652Z,13.40
2019-05-15T19:07:38.370Z,12.97
2019-05-15T19:10:08.193Z,10.90
2019-05-15T19:12:37.910Z,14.07
2019-05-15T19:15:09.233Z,11.57
2019-05-15T19:17:38.848Z,11.10
2019-05-15T19:20:08.633Z,9.07
2019-05-15T19:22:40.578Z,10.20
2019-05-15T19:25:10.493Z,10.00
2019-05-15T19:27:39.588Z,11.70
2019-05-15T19:30:08.871Z,12.40
2019-05-15T19:32:38.769Z,13.50
2019-05-15T19:35:08.193Z,12.87
2019-05-15T19:37:38.614Z,11.90
2019-05-15T19:40:08.025Z,12.70
2019-05-15T19:42:38.314Z,12.43
2019-05-15T19:45:08.586Z,10.67
2019-05-15T19:47:38.786Z,15.33
2019-05-15T19:50:09.788Z,13.40
2019-05-15T19:52:38.792Z,13.90
2019-05-15T19:55:08.843Z,16.50
2019-05-15T19:57:39.024Z,16.20
2019-05-15T20:00:08.754Z,12.80
2019-05-15T20:02:38.164Z,11.37
2019-05-15T20:05:09.158Z,16.10
2019-05-15T20:07:39.006Z,12.17
2019-05-15T20:10:09.796Z,11.27
2019-05-15T20:12:39.284Z,13.70
2019-05-15T20:15:09.474Z,10.20
2019-05-15T20:17:38.985Z,12.50
2019-05-15T20:20:08.907Z,13.00
2019-05-15T20:22:40.235Z,17.83
2019-05-15T20:25:10.220Z,11.60
2019-05-15T20:27:41.842Z,13.50
2019-05-15T20:30:11.409Z,12.97
2019-05-15T20:32:40.133Z,11.47
2019-05-15T20:35:08.954Z,14.63
2019-05-15T20:37:40.428Z,13.40
2019-05-15T20:40:09.903Z,14.97
2019-05-15T20:42:38.846Z,13.57
2019-05-15T20:45:11.666Z,11.63
2019-05-15T20:47:38.858Z,12.50
2019-05-15T20:50:08.852Z,13.03
2019-05-15T20:52:39.477Z,11.83
2019-05-15T20:55:08.465Z,14.93
2019-05-15T20:57:40.050Z,13.77
2019-05-15T21:00:10.693Z,14.10
2019-05-15T21:02:39.191Z,12.93
2019-05-15T21:05:08.688Z,15.80
2019-05-15T21:07:39.955Z,11.63
2019-05-15T21:10:09.154Z,16.20
2019-05-15T21:12:41.028Z,15.53
2019-05-15T21:15:09.456Z,16.57
2019-05-15T21:17:39.669Z,12.37
2019-05-15T21:20:09.863Z,11.90
2019-05-15T21:22:40.173Z,12.03
2019-05-15T21:25:10.806Z,12.40
2019-05-15T21:27:42.291Z,13.77
2019-05-15T21:30:10.850Z,12.53
2019-05-15T21:32:39.240Z,13.63
2019-05-15T21:35:09.040Z,14.73
2019-05-15T21:37:38.958Z,13.23
2019-05-15T21:40:08.467Z,15.07
2019-05-15T21:42:39.024Z,13.27
2019-05-15T21:45:14.225Z,11.60
2019-05-15T21:47:38.973Z,12.80
2019-05-15T21:50:08.174Z,12.83
2019-05-15T21:52:38.947Z,12.20
2019-05-15T21:55:09.275Z,12.50
2019-05-15T21:57:40.448Z,13.90
2019-05-15T22:00:17.893Z,12.00
2019-05-15T22:02:49.145Z,12.47
2019-05-15T22:05:19.085Z,13.00
2019-05-15T22:07:47.819Z,11.87
2019-05-15T22:10:19.394Z,11.63
2019-05-15T22:12:48.501Z,12.47
2019-05-15T22:15:19.058Z,11.23
2019-05-15T22:17:49.286Z,10.17
2019-05-15T22:20:18.946Z,10.63
2019-05-15T22:22:50.354Z,9.43
2019-05-15T22:25:18.967Z,10.30
2019-05-15T22:27:48.703Z,10.47
2019-05-15T22:30:19.160Z,9.53
2019-05-15T22:32:49.513Z,14.07
2019-05-15T22:35:19.013Z,13.30
2019-05-15T22:37:49.289Z,13.27
2019-05-15T22:40:18.483Z,15.13
2019-05-15T22:42:48.583Z,15.73
2019-05-15T22:45:18.390Z,14.90
2019-05-15T22:47:48.389Z,13.37
2019-05-15T22:50:18.843Z,12.43
2019-05-15T22:52:49.315Z,15.60
2019-05-15T22:55:18.517Z,15.37
2019-05-15T22:57:48.191Z,14.97
2019-05-15T23:00:18.158Z,16.13
2019-05-15T23:02:48.853Z,14.93
2019-05-15T23:05:25.116Z,16.17
2019-05-15T23:07:48.308Z,16.27
2019-05-15T23:10:17.270Z,18.90
2019-05-15T23:12:45.843Z,19.13
2019-05-15T23:15:14.466Z,17.77
2019-05-15T23:17:43.253Z,19.07
2019-05-15T23:20:12.022Z,14.73
2019-05-15T23:22:40.750Z,14.03
2019-05-15T23:25:09.532Z,17.80
2019-05-15T23:27:38.846Z,17.00
2019-05-15T23:30:09.073Z,16.37
2019-05-15T23:32:39.088Z,15.60
2019-05-15T23:35:08.268Z,16.73
2019-05-15T23:37:39.271Z,16.60
2019-05-15T23:40:08.887Z,14.57
2019-05-15T23:42:39.067Z,18.40
2019-05-15T23:45:08.086Z,17.37
2019-05-15T23:47:38.393Z,18.83
2019-05-15T23:50:07.081Z,14.47
2019-05-15T23:52:35.590Z,14.87
2019-05-15T23:55:04.405Z,20.90
2019-05-15T23:57:33.130Z,17.97
